Time;durP1;ratioP1;P1;durP2;ratioP2;P2;SDS_P1;SDS_P2;PMS_P1;PMS_P2;Temp;Humidity;BMP_temperature;BMP_pressure;BME280_temperature;BME280_humidity;BME280_pressure;Samples;Min_cycle;Max_cycle;Signal;HPM_P1;HPM_P2
2023/12/24 00:01:07;;;;;;;;;;;;;;;9.84;100.00;100656.00;5108837;28;19915;-43
2023/12/24 00:03:36;;;;;;;;;;;;;;;9.80;100.00;100636.72;5107977;28;20074;-44
2023/12/24 00:06:01;;;;;;;;;;;;;;;9.78;100.00;100649.50;5105542;28;20006;-44
2023/12/24 00:08:28;;;;;;;;;;;;;;;9.77;100.00;100634.41;5107959;28;20010;-44
2023/12/24 00:10:53;;;;;;;;;;;;;;;9.76;100.00;100675.72;5098937;28;20267;-44
2023/12/24 00:13:19;;;;;;;;;;;;;;;9.79;100.00;100626.13;5107401;28;19930;-44
2023/12/24 00:15:44;;;;;;;;;;;;;;;9.76;100.00;100624.66;5108383;28;20370;-45
2023/12/24 00:18:10;;;;;;;;;;;;;;;9.75;100.00;100625.69;5108154;28;20655;-44
2023/12/24 00:20:35;;;;;;;;;;;;;;;9.73;100.00;100632.25;5105812;28;19928;-45
2023/12/24 00:23:04;;;;;;;;;;;;;;;9.77;100.00;100657.72;5107724;28;19916;-44
2023/12/24 00:25:29;;;;;;;;;;;;;;;9.77;100.00;100630.84;5107430;28;19950;-47
2023/12/24 00:27:55;;;;;;;;;;;;;;;9.77;100.00;100645.16;5106871;28;20007;-48
2023/12/24 00:30:20;;;;;;;;;;;;;;;9.78;100.00;100630.69;5107539;28;20314;-44
2023/12/24 00:32:45;;;;;;;;;;;;;;;9.81;100.00;100619.56;5107841;28;19951;-45
2023/12/24 00:35:10;;;;;;;;;;;;;;;9.80;100.00;100623.28;5106528;28;19966;-44
2023/12/24 00:37:36;;;;;;;;;;;;;;;9.82;100.00;100625.75;5106025;28;19919;-43
2023/12/24 00:40:01;;;;;;;;;;;;;;;9.84;100.00;100616.50;5105183;28;19920;-43
2023/12/24 00:42:26;;;;;;;;;;;;;;;9.84;100.00;100624.56;5106362;28;19924;-44
2023/12/24 00:44:52;;;;;;;;;;;;;;;9.79;100.00;100618.91;5107460;28;20267;-43
2023/12/24 00:47:17;;;;;;;;;;;;;;;9.74;100.00;100633.91;5106919;28;19981;-45
2023/12/24 00:49:42;;;;;;;;;;;;;;;9.70;100.00;100617.31;5105521;28;19928;-43
2023/12/24 00:52:08;;;;;;;;;;;;;;;9.65;100.00;100630.47;5102454;28;20128;-45
2023/12/24 00:54:33;;;;;;;;;;;;;;;9.54;100.00;100629.03;5104421;28;19920;-46
2023/12/24 00:56:58;;;;;;;;;;;;;;;9.57;100.00;100630.53;5098993;28;19924;-46
2023/12/24 00:59:23;;;;;;;;;;;;;;;9.53;100.00;100624.69;5105419;28;19974;-43
2023/12/24 01:01:49;;;;;;;;;;;;;;;9.53;100.00;100627.38;5106613;28;19920;-45
2023/12/24 01:04:14;;;;;;;;;;;;;;;9.46;100.00;100623.75;5103093;28;19935;-46
2023/12/24 01:06:39;;;;;;;;;;;;;;;9.47;100.00;100633.47;5093018;28;19927;-46
2023/12/24 01:09:04;;;;;;;;;;;;;;;9.44;100.00;100633.81;5101674;28;19954;-49
2023/12/24 01:11:29;;;;;;;;;;;;;;;9.42;100.00;100658.16;5103181;28;20007;-46
2023/12/24 01:13:55;;;;;;;;;;;;;;;9.36;100.00;100647.31;5106858;28;19998;-48
2023/12/24 01:16:20;;;;;;;;;;;;;;;9.35;100.00;100653.72;5098256;28;20511;-47
2023/12/24 01:18:47;;;;;;;;;;;;;;;9.30;100.00;100656.94;5103710;28;19927;-50
2023/12/24 01:21:12;;;;;;;;;;;;;;;9.29;100.00;100657.91;5105987;28;19950;-47
2023/12/24 01:23:37;;;;;;;;;;;;;;;9.27;100.00;100669.84;5104943;28;20405;-49
2023/12/24 01:26:03;;;;;;;;;;;;;;;9.25;100.00;100661.16;5105905;28;19920;-51
2023/12/24 01:28:28;;;;;;;;;;;;;;;9.22;100.00;100667.72;5102739;28;19955;-48
2023/12/24 01:30:54;;;;;;;;;;;;;;;9.20;100.00;100665.19;5105089;28;19920;-48
2023/12/24 01:33:20;;;;;;;;;;;;;;;9.18;100.00;100650.28;5103689;28;20243;-49
2023/12/24 01:35:47;;;;;;;;;;;;;;;9.16;100.00;100653.16;5107189;28;19924;-48
2023/12/24 01:38:12;;;;;;;;;;;;;;;9.17;100.00;100652.13;5105844;28;20014;-47
2023/12/24 01:40:37;;;;;;;;;;;;;;;9.18;100.00;100643.06;5101851;28;20023;-47
2023/12/24 01:43:02;;;;;;;;;;;;;;;9.19;100.00;100635.88;5101566;28;19972;-48
2023/12/24 01:45:27;;;;;;;;;;;;;;;9.18;100.00;100634.16;5105746;28;19920;-49
2023/12/24 01:47:53;;;;;;;;;;;;;;;9.16;100.00;100629.00;5105468;28;19942;-49
2023/12/24 01:50:18;;;;;;;;;;;;;;;9.14;100.00;100616.75;5103306;28;19924;-49
2023/12/24 01:52:43;;;;;;;;;;;;;;;9.17;100.00;100637.88;5100935;28;19920;-49
2023/12/24 01:55:09;;;;;;;;;;;;;;;9.18;100.00;100628.81;5104952;28;19931;-50
2023/12/24 01:57:34;;;;;;;;;;;;;;;9.16;100.00;100614.72;5101891;28;19920;-51
2023/12/24 01:59:59;;;;;;;;;;;;;;;9.17;100.00;100616.41;5104382;28;19920;-50
2023/12/24 02:02:25;;;;;;;;;;;;;;;9.18;100.00;100618.06;5105665;28;19924;-51
2023/12/24 02:04:50;;;;;;;;;;;;;;;9.15;100.00;100613.06;5106861;28;20390;-49
2023/12/24 02:07:15;;;;;;;;;;;;;;;9.14;100.00;100608.72;5098030;28;20354;-50
2023/12/24 02:09:41;;;;;;;;;;;;;;;9.15;100.00;100613.06;5104883;28;19935;-50
2023/12/24 02:12:07;;;;;;;;;;;;;;;9.14;100.00;100619.44;5108249;28;19928;-49
2023/12/24 02:14:32;;;;;;;;;;;;;;;9.14;100.00;100616.75;5109072;28;20412;-47
2023/12/24 02:16:59;;;;;;;;;;;;;;;9.12;100.00;100634.91;5107135;28;20327;-51
2023/12/24 02:19:24;;;;;;;;;;;;;;;9.12;100.00;100630.34;5107524;28;19954;-51
2023/12/24 02:21:49;;;;;;;;;;;;;;;9.13;100.00;100621.28;5111152;28;19916;-51
2023/12/24 02:24:15;;;;;;;;;;;;;;;9.15;100.00;100629.16;5105538;28;19928;-48
2023/12/24 02:27:01;;;;;;;;;;;;;;;9.16;100.00;100650.47;5109745;28;19927;-48
2023/12/24 02:29:27;;;;;;;;;;;;;;;9.15;100.00;100632.69;5106164;28;20364;-52
2023/12/24 02:31:54;;;;;;;;;;;;;;;9.15;100.00;100624.63;5109780;28;20018;-50
2023/12/24 02:34:19;;;;;;;;;;;;;;;9.15;100.00;100610.38;5100376;28;19919;-48
2023/12/24 02:36:48;;;;;;;;;;;;;;;9.13;100.00;100610.53;5104063;28;19923;-51
2023/12/24 02:39:14;;;;;;;;;;;;;;;9.13;100.00;100607.84;5106864;28;19928;-51
2023/12/24 02:41:39;;;;;;;;;;;;;;;9.14;100.00;100597.97;5106161;28;19924;-52
2023/12/24 02:44:04;;;;;;;;;;;;;;;9.16;100.00;100593.22;5108513;28;19998;-50
2023/12/24 02:46:29;;;;;;;;;;;;;;;9.16;100.00;100598.59;5108378;28;19920;-53
2023/12/24 02:48:54;;;;;;;;;;;;;;;9.16;100.00;100579.81;5108802;28;19924;-50
2023/12/24 02:51:20;;;;;;;;;;;;;;;9.18;100.00;100583.16;5108843;27;20293;-51
2023/12/24 02:53:45;;;;;;;;;;;;;;;9.20;100.00;100591.88;5106752;28;20253;-48
2023/12/24 02:56:10;;;;;;;;;;;;;;;9.22;100.00;100593.38;5089740;28;20332;-49
2023/12/24 02:58:35;;;;;;;;;;;;;;;9.27;100.00;100582.09;5107956;28;19930;-46
2023/12/24 03:01:01;;;;;;;;;;;;;;;9.28;100.00;100581.06;5108782;28;19920;-49
2023/12/24 03:03:26;;;;;;;;;;;;;;;9.29;100.00;100566.63;5095529;28;19919;-48
2023/12/24 03:05:51;;;;;;;;;;;;;;;9.31;100.00;100574.50;5108290;28;19923;-49
2023/12/24 03:08:17;;;;;;;;;;;;;;;9.32;100.00;100574.34;5108401;28;20411;-49
2023/12/24 03:10:42;;;;;;;;;;;;;;;9.33;100.00;100565.25;5109353;28;20713;-49
2023/12/24 03:13:07;;;;;;;;;;;;;;;9.34;100.00;100568.75;5107392;28;19997;-49
2023/12/24 03:15:33;;;;;;;;;;;;;;;9.37;100.00;100568.41;5107686;28;19920;-48
2023/12/24 03:17:58;;;;;;;;;;;;;;;9.36;100.00;100567.56;5107936;28;19920;-48
2023/12/24 03:20:23;;;;;;;;;;;;;;;9.37;100.00;100561.19;5104851;28;19926;-48
2023/12/24 03:22:48;;;;;;;;;;;;;;;9.38;100.00;100560.19;5107532;28;19920;-48
2023/12/24 03:25:14;;;;;;;;;;;;;;;9.43;100.00;100557.78;5106624;28;20510;-47
2023/12/24 03:27:39;;;;;;;;;;;;;;;9.43;100.00;100557.78;5107756;28;20274;-47
2023/12/24 03:30:05;;;;;;;;;;;;;;;9.45;100.00;100563.81;5106697;28;20621;-45
2023/12/24 03:32:30;;;;;;;;;;;;;;;9.47;100.00;100563.63;5101376;28;20258;-46
2023/12/24 03:34:55;;;;;;;;;;;;;;;9.49;100.00;100558.06;5104353;28;20278;-47
2023/12/24 03:37:20;;;;;;;;;;;;;;;9.46;100.00;100567.34;5108033;28;20388;-47
2023/12/24 03:39:45;;;;;;;;;;;;;;;9.51;100.00;100542.63;5108798;28;20362;-49
2023/12/24 03:42:11;;;;;;;;;;;;;;;9.55;100.00;100550.09;5104718;28;20001;-46
2023/12/24 03:44:36;;;;;;;;;;;;;;;9.59;100.00;100542.53;5097693;28;19967;-47
2023/12/24 03:47:01;;;;;;;;;;;;;;;9.57;100.00;100531.13;5104056;28;19927;-47
2023/12/24 03:49:26;;;;;;;;;;;;;;;9.60;100.00;100530.75;5102184;28;19923;-46
2023/12/24 03:51:52;;;;;;;;;;;;;;;9.63;100.00;100541.97;5107685;28;19919;-46
2023/12/24 03:54:21;;;;;;;;;;;;;;;9.65;100.00;100528.34;5107503;28;19928;-45
2023/12/24 03:56:47;;;;;;;;;;;;;;;9.67;100.00;100532.53;5108431;28;20354;-44
2023/12/24 03:59:12;;;;;;;;;;;;;;;9.67;100.00;100531.69;5106693;28;19927;-45
2023/12/24 04:01:37;;;;;;;;;;;;;;;9.71;100.00;100532.16;5106502;28;20445;-44
2023/12/24 04:04:02;;;;;;;;;;;;;;;9.69;100.00;100535.03;5105849;28;20346;-44
2023/12/24 04:06:27;;;;;;;;;;;;;;;9.71;100.00;100532.97;5101319;28;19927;-45
2023/12/24 04:08:53;;;;;;;;;;;;;;;9.72;100.00;100523.94;5103957;28;19919;-48
2023/12/24 04:11:18;;;;;;;;;;;;;;;9.73;100.00;100528.28;5104756;28;20182;-46
2023/12/24 04:13:44;;;;;;;;;;;;;;;9.76;100.00;100532.44;5107350;28;20302;-47
2023/12/24 04:16:09;;;;;;;;;;;;;;;9.77;100.00;100529.59;5104077;28;19931;-45
2023/12/24 04:18:34;;;;;;;;;;;;;;;9.79;100.00;100572.38;5099558;28;19970;-45
2023/12/24 04:21:00;;;;;;;;;;;;;;;9.80;100.00;100523.00;5096106;28;20379;-46
2023/12/24 04:23:25;;;;;;;;;;;;;;;9.81;100.00;100524.66;5109339;28;19924;-48
2023/12/24 04:25:50;;;;;;;;;;;;;;;9.83;100.00;100530.69;5106455;28;20341;-46
2023/12/24 04:28:15;;;;;;;;;;;;;;;9.82;100.00;100527.19;5108667;28;19932;-47
2023/12/24 04:30:40;;;;;;;;;;;;;;;9.83;100.00;100528.84;5106609;28;19928;-46
2023/12/24 04:33:06;;;;;;;;;;;;;;;9.88;100.00;100523.75;5106465;28;20643;-45
2023/12/24 04:35:31;;;;;;;;;;;;;;;9.86;100.00;100512.34;5109599;28;20319;-46
2023/12/24 04:37:56;;;;;;;;;;;;;;;9.88;100.00;100523.75;5106992;28;19968;-45
2023/12/24 04:40:21;;;;;;;;;;;;;;;9.86;100.00;100541.91;5104263;28;20369;-45
2023/12/24 04:42:47;;;;;;;;;;;;;;;9.87;100.00;100524.78;5107874;28;20223;-46
2023/12/24 04:45:12;;;;;;;;;;;;;;;9.94;100.00;100513.25;5096985;28;19923;-44
2023/12/24 04:47:37;;;;;;;;;;;;;;;9.88;100.00;100513.00;5106925;28;20420;-45
2023/12/24 04:50:03;;;;;;;;;;;;;;;9.89;100.00;100511.97;5106113;28;20297;-46
2023/12/24 04:52:29;;;;;;;;;;;;;;;9.91;100.00;100506.41;5104249;28;19919;-44
2023/12/24 04:54:54;;;;;;;;;;;;;;;9.92;100.00;100501.84;5106911;28;19955;-45
2023/12/24 04:57:19;;;;;;;;;;;;;;;9.92;100.00;100499.16;5103960;28;20010;-43
2023/12/24 04:59:44;;;;;;;;;;;;;;;9.93;100.00;100498.16;5103102;28;19954;-44
2023/12/24 05:02:09;;;;;;;;;;;;;;;9.93;100.00;100495.47;5104150;28;19935;-43
2023/12/24 05:04:35;;;;;;;;;;;;;;;10.01;100.00;100498.91;5105260;28;19942;-43
2023/12/24 05:07:00;;;;;;;;;;;;;;;10.03;100.00;100494.19;5103378;28;19934;-45
2023/12/24 05:09:26;;;;;;;;;;;;;;;10.01;100.00;100493.53;5104528;28;19970;-45
2023/12/24 05:11:51;;;;;;;;;;;;;;;9.99;100.00;100486.66;5105452;28;19920;-44
2023/12/24 05:14:16;;;;;;;;;;;;;;;10.06;100.00;100476.84;5104181;28;20364;-44
2023/12/24 05:16:41;;;;;;;;;;;;;;;10.09;100.00;100479.97;5097614;28;19935;-44
2023/12/24 05:19:07;;;;;;;;;;;;;;;10.13;100.00;100487.66;5099666;28;19927;-44
2023/12/24 05:21:32;;;;;;;;;;;;;;;10.11;100.00;100480.63;5104572;28;19985;-44
2023/12/24 05:23:57;;;;;;;;;;;;;;;10.08;100.00;100482.84;5104592;28;19927;-43
2023/12/24 05:26:24;;;;;;;;;;;;;;;10.13;100.00;100475.03;5105245;28;20330;-44
2023/12/24 05:28:50;;;;;;;;;;;;;;;10.15;100.00;100467.63;5099714;28;19926;-45
2023/12/24 05:31:15;;;;;;;;;;;;;;;10.20;100.00;100472.44;5100160;28;19928;-45
2023/12/24 05:33:40;;;;;;;;;;;;;;;10.22;100.00;100471.25;5103763;28;20144;-43
2023/12/24 05:36:06;;;;;;;;;;;;;;;10.23;100.00;100472.88;5098480;28;19966;-45
2023/12/24 05:38:31;;;;;;;;;;;;;;;10.26;100.00;100458.22;5103167;28;19923;-44
2023/12/24 05:40:56;;;;;;;;;;;;;;;10.27;100.00;100462.59;5100042;28;19924;-44
2023/12/24 05:43:21;;;;;;;;;;;;;;;10.28;100.00;100467.81;5103174;28;20405;-43
2023/12/24 05:45:47;;;;;;;;;;;;;;;10.27;100.00;100452.72;5101707;28;20409;-44
2023/12/24 05:48:12;;;;;;;;;;;;;;;10.30;100.00;100467.63;5106234;28;20498;-44
2023/12/24 05:50:38;;;;;;;;;;;;;;;10.33;100.00;100445.72;5104595;28;19946;-45
2023/12/24 05:53:04;;;;;;;;;;;;;;;10.35;100.00;100449.06;5106077;28;20023;-45
2023/12/24 05:55:29;;;;;;;;;;;;;;;10.38;100.00;100454.06;5106837;28;19998;-45
2023/12/24 05:57:54;;;;;;;;;;;;;;;10.44;100.00;100447.91;5106090;28;20332;-44
2023/12/24 06:00:20;;;;;;;;;;;;;;;10.45;100.00;100446.06;5105384;28;19923;-44
2023/12/24 06:02:45;;;;;;;;;;;;;;;10.42;100.00;100412.28;5098765;28;19963;-44
2023/12/24 06:05:10;;;;;;;;;;;;;;;10.43;100.00;100440.06;5104386;28;19927;-43
2023/12/24 06:07:36;;;;;;;;;;;;;;;10.48;100.00;100437.63;5105619;28;20387;-44
2023/12/24 06:10:01;;;;;;;;;;;;;;;10.51;100.00;100438.06;5103661;28;20266;-44
2023/12/24 06:12:26;;;;;;;;;;;;;;;10.51;100.00;100413.03;5101869;28;20298;-45
2023/12/24 06:14:51;;;;;;;;;;;;;;;10.54;100.00;100412.63;5103024;28;19950;-43
2023/12/24 06:17:17;;;;;;;;;;;;;;;10.55;100.00;100422.34;5094430;28;19924;-44
2023/12/24 06:19:43;;;;;;;;;;;;;;;10.55;100.00;100423.19;5104922;28;19935;-43
2023/12/24 06:22:08;;;;;;;;;;;;;;;10.56;100.00;100434.81;5104856;28;20261;-45
2023/12/24 06:24:34;;;;;;;;;;;;;;;10.58;100.00;100437.28;5106830;28;19992;-44
2023/12/24 06:26:59;;;;;;;;;;;;;;;10.59;100.00;100423.66;5105166;28;19930;-43
2023/12/24 06:29:24;;;;;;;;;;;;;;;10.62;100.00;100444.78;5096000;28;19924;-45
2023/12/24 06:31:49;;;;;;;;;;;;;;;10.62;100.00;100433.22;5098018;28;19926;-44
2023/12/24 06:34:15;;;;;;;;;;;;;;;10.62;100.00;100439.41;5106424;28;19932;-44
2023/12/24 06:36:40;;;;;;;;;;;;;;;10.64;100.00;100434.69;5104110;28;20601;-43
2023/12/24 06:39:05;;;;;;;;;;;;;;;10.62;100.00;100423.25;5104494;28;20313;-46
2023/12/24 06:41:30;;;;;;;;;;;;;;;10.64;100.00;100429.28;5104028;28;20358;-43
2023/12/24 06:43:56;;;;;;;;;;;;;;;10.65;100.00;100419.34;5104373;28;19981;-44
2023/12/24 06:46:24;;;;;;;;;;;;;;;10.66;100.00;100416.44;5103006;28;19923;-44
2023/12/24 06:48:49;;;;;;;;;;;;;;;10.66;100.00;100419.16;5101797;28;19919;-43
2023/12/24 06:51:14;;;;;;;;;;;;;;;10.65;100.00;100422.06;5102796;28;20392;-45
2023/12/24 06:53:40;;;;;;;;;;;;;;;10.64;100.00;100409.63;5102790;28;20405;-45
2023/12/24 06:56:05;;;;;;;;;;;;;;;10.67;100.00;100403.84;5101606;28;20610;-44
2023/12/24 06:58:31;;;;;;;;;;;;;;;10.71;100.00;100408.63;5104873;28;19919;-45
2023/12/24 07:00:56;;;;;;;;;;;;;;;10.69;100.00;100399.94;5104623;28;20346;-43
2023/12/24 07:03:21;;;;;;;;;;;;;;;10.70;100.00;100404.28;5104496;28;19938;-45
2023/12/24 07:05:46;;;;;;;;;;;;;;;10.77;100.00;100407.88;5103157;28;20374;-44
2023/12/24 07:08:12;;;;;;;;;;;;;;;10.75;100.00;100407.25;5104528;28;19989;-44
2023/12/24 07:10:37;;;;;;;;;;;;;;;10.77;100.00;100424.03;5105593;28;20009;-45
2023/12/24 07:13:03;;;;;;;;;;;;;;;10.82;100.00;100411.84;5105199;28;19958;-45
2023/12/24 07:15:30;;;;;;;;;;;;;;;10.83;100.00;100416.22;5098563;28;19930;-43
2023/12/24 07:17:55;;;;;;;;;;;;;;;10.79;100.00;100399.59;5105063;28;20047;-47
2023/12/24 07:20:20;;;;;;;;;;;;;;;10.75;100.00;100401.03;5105338;27;20013;-45
2023/12/24 07:22:45;;;;;;;;;;;;;;;10.73;100.00;100398.50;5103528;28;20026;-44
2023/12/24 07:25:10;;;;;;;;;;;;;;;10.70;100.00;100385.44;5106030;28;19967;-44
2023/12/24 07:27:36;;;;;;;;;;;;;;;10.67;100.00;100415.44;5104510;28;20009;-43
2023/12/24 07:30:01;;;;;;;;;;;;;;;10.66;100.00;100405.69;5105343;28;19924;-44
2023/12/24 07:32:26;;;;;;;;;;;;;;;10.69;100.00;100408.03;5104594;28;20262;-43
2023/12/24 07:34:51;;;;;;;;;;;;;;;10.65;100.00;100414.81;5105355;28;20308;-46
2023/12/24 07:37:17;;;;;;;;;;;;;;;10.66;100.00;100407.56;5104003;28;21097;-46
2023/12/24 07:39:42;;;;;;;;;;;;;;;10.64;100.00;100423.91;5106310;28;20447;-47
2023/12/24 07:42:07;;;;;;;;;;;;;;;10.62;100.00;100408.97;5105201;28;19935;-47
2023/12/24 07:44:33;;;;;;;;;;;;;;;10.55;100.00;100430.44;5103877;28;19920;-46
2023/12/24 07:46:58;;;;;;;;;;;;;;;10.54;100.00;100426.91;5104939;28;20504;-47
2023/12/24 07:49:25;;;;;;;;;;;;;;;10.55;100.00;100408.91;5100972;28;20437;-46
2023/12/24 07:51:51;;;;;;;;;;;;;;;10.53;100.00;100410.94;5105251;28;19923;-46
2023/12/24 07:54:16;;;;;;;;;;;;;;;10.49;100.00;100423.13;5106223;28;19935;-46
2023/12/24 07:56:41;;;;;;;;;;;;;;;10.49;100.00;100417.75;5103907;28;20707;-44
2023/12/24 07:59:06;;;;;;;;;;;;;;;10.49;100.00;100423.13;5105963;27;19928;-43
2023/12/24 08:01:32;;;;;;;;;;;;;;;10.50;100.00;100422.09;5105292;27;19969;-43
2023/12/24 08:03:57;;;;;;;;;;;;;;;10.51;100.00;100432.69;5104876;28;19955;-44
2023/12/24 08:06:22;;;;;;;;;;;;;;;10.53;100.00;100427.09;5106542;28;19974;-43
2023/12/24 08:08:47;;;;;;;;;;;;;;;10.52;100.00;100426.25;5104070;28;19924;-46
2023/12/24 08:11:12;;;;;;;;;;;;;;;10.55;100.00;100435.81;5103428;28;19958;-44
2023/12/24 08:13:38;;;;;;;;;;;;;;;10.59;100.00;100428.22;5102824;28;19952;-42
2023/12/24 08:16:03;;;;;;;;;;;;;;;10.59;100.00;100428.22;5103494;28;20330;-44
2023/12/24 08:18:28;;;;;;;;;;;;;;;10.56;100.00;100434.81;5106397;28;19972;-43
2023/12/24 08:20:54;;;;;;;;;;;;;;;10.53;100.00;100430.63;5106216;28;19920;-44
2023/12/24 08:23:20;;;;;;;;;;;;;;;10.55;100.00;100435.81;5104185;28;19928;-43
2023/12/24 08:25:45;;;;;;;;;;;;;;;10.53;100.00;100422.56;5107966;28;19919;-43
2023/12/24 08:28:10;;;;;;;;;;;;;;;10.54;100.00;100442.22;5102792;28;19981;-45
2023/12/24 08:30:36;;;;;;;;;;;;;;;10.55;100.00;100443.88;5102476;28;19934;-43
2023/12/24 08:33:01;;;;;;;;;;;;;;;10.54;100.00;100434.16;5103803;28;19919;-45
2023/12/24 08:35:26;;;;;;;;;;;;;;;10.55;100.00;100433.13;5102490;28;20289;-43
2023/12/24 08:37:51;;;;;;;;;;;;;;;10.60;100.00;100432.56;5101985;28;19920;-43
2023/12/24 08:40:17;;;;;;;;;;;;;;;10.61;100.00;100424.31;5105754;28;20261;-45
2023/12/24 08:42:42;;;;;;;;;;;;;;;10.63;100.00;100435.69;5104668;28;19928;-44
2023/12/24 08:45:08;;;;;;;;;;;;;;;10.65;100.00;100420.19;5105633;28;19945;-43
2023/12/24 08:47:33;;;;;;;;;;;;;;;10.67;100.00;100431.59;5103484;28;19951;-44
2023/12/24 08:49:59;;;;;;;;;;;;;;;10.69;100.00;100413.41;5106738;28;19916;-44
2023/12/24 08:52:25;;;;;;;;;;;;;;;10.75;100.00;100422.56;5102946;28;19915;-44
2023/12/24 08:54:50;;;;;;;;;;;;;;;10.79;100.00;100413.06;5104297;28;19926;-44
2023/12/24 08:57:15;;;;;;;;;;;;;;;10.82;100.00;100390.28;5107298;28;19974;-45
2023/12/24 08:59:40;;;;;;;;;;;;;;;10.85;100.00;100400.69;5101935;28;20012;-44
2023/12/24 09:02:06;;;;;;;;;;;;;;;10.87;100.00;100410.22;5103736;28;19928;-45
2023/12/24 09:04:31;;;;;;;;;;;;;;;10.87;100.00;100409.41;5107363;28;19916;-44
2023/12/24 09:06:56;;;;;;;;;;;;;;;10.89;100.00;100396.56;5106399;28;19919;-44
2023/12/24 09:09:21;;;;;;;;;;;;;;;10.92;100.00;100385.41;5102373;28;19927;-44
2023/12/24 09:11:47;;;;;;;;;;;;;;;10.94;100.00;100380.69;5103078;28;19920;-44
2023/12/24 09:14:12;;;;;;;;;;;;;;;10.94;100.00;100388.75;5104203;28;20074;-44
2023/12/24 09:16:38;;;;;;;;;;;;;;;10.99;100.00;100389.00;5104786;28;19932;-47
2023/12/24 09:19:03;;;;;;;;;;;;;;;11.04;100.00;100393.81;5103406;28;20290;-47
2023/12/24 09:21:28;;;;;;;;;;;;;;;10.99;100.00;100380.91;5102126;28;20007;-43
2023/12/24 09:23:54;;;;;;;;;;;;;;;10.99;100.00;100362.06;5094994;28;19967;-45
2023/12/24 09:26:20;;;;;;;;;;;;;;;10.99;100.00;100380.91;5099381;28;19923;-44
2023/12/24 09:28:45;;;;;;;;;;;;;;;11.04;100.00;100367.69;5103774;28;19928;-44
2023/12/24 09:31:10;;;;;;;;;;;;;;;11.03;100.00;100367.88;5103536;28;19927;-44
2023/12/24 09:33:35;;;;;;;;;;;;;;;11.07;100.00;100374.56;5103077;28;19924;-43
2023/12/24 09:36:07;;;;;;;;;;;;;;;11.06;100.00;100362.97;5100423;28;19943;-43
2023/12/24 09:38:32;;;;;;;;;;;;;;;11.11;100.00;100395.53;5104179;28;20305;-44
2023/12/24 09:40:57;;;;;;;;;;;;;;;11.11;100.00;100367.72;5103720;28;19920;-44
2023/12/24 09:43:24;;;;;;;;;;;;;;;11.07;100.00;100356.53;5104196;28;19944;-44
2023/12/24 09:45:49;;;;;;;;;;;;;;;11.14;100.00;100367.38;5106308;28;19919;-45
2023/12/24 09:48:15;;;;;;;;;;;;;;;11.11;100.00;100371.28;5087075;28;20990;-45
2023/12/24 09:50:40;;;;;;;;;;;;;;;11.12;100.00;100374.81;5102262;28;19928;-44
2023/12/24 09:53:05;;;;;;;;;;;;;;;11.09;100.00;100384.09;5101381;28;19935;-44
2023/12/24 09:55:30;;;;;;;;;;;;;;;11.07;100.00;100374.56;5088435;28;20295;-45
2023/12/24 09:57:55;;;;;;;;;;;;;;;11.12;100.00;100390.97;5105418;28;19970;-43
2023/12/24 10:00:22;;;;;;;;;;;;;;;11.13;100.00;100393.44;5101959;28;19955;-45
2023/12/24 10:02:47;;;;;;;;;;;;;;;11.08;100.00;100405.84;5104906;28;20817;-44
2023/12/24 10:05:14;;;;;;;;;;;;;;;11.15;100.00;100406.72;5096692;28;19923;-45
2023/12/24 10:07:39;;;;;;;;;;;;;;;11.10;100.00;100393.84;5104430;28;19924;-44
2023/12/24 10:10:08;;;;;;;;;;;;;;;11.07;100.00;100396.94;5103591;28;19926;-46
2023/12/24 10:12:34;;;;;;;;;;;;;;;11.09;100.00;100396.75;5104069;28;19926;-44
2023/12/24 10:15:00;;;;;;;;;;;;;;;11.05;100.00;100411.63;5104142;28;19920;-44
2023/12/24 10:17:31;;;;;;;;;;;;;;;11.05;100.00;100406.22;5104968;28;20277;-45
2023/12/24 10:19:56;;;;;;;;;;;;;;;11.06;100.00;100397.97;5106234;28;19955;-49
2023/12/24 10:22:23;;;;;;;;;;;;;;;11.06;100.00;100389.88;5094372;28;19962;-46
2023/12/24 10:24:48;;;;;;;;;;;;;;;10.99;100.00;100387.13;5104164;28;19916;-47
2023/12/24 10:27:15;;;;;;;;;;;;;;;10.98;100.00;100392.72;5106228;28;19931;-49
2023/12/24 10:29:41;;;;;;;;;;;;;;;10.95;100.00;100402.03;5104776;28;19942;-51
2023/12/24 10:32:06;;;;;;;;;;;;;;;10.96;100.00;100402.84;5107014;28;19928;-52
2023/12/24 10:34:33;;;;;;;;;;;;;;;10.96;100.00;100405.56;5102070;28;19931;-51
2023/12/24 10:36:59;;;;;;;;;;;;;;;10.96;100.00;100408.25;5107478;28;19977;-54
2023/12/24 10:39:25;;;;;;;;;;;;;;;10.90;100.00;100403.63;5101432;28;19923;-52
2023/12/24 10:41:51;;;;;;;;;;;;;;;10.89;100.00;100407.34;5105049;28;20458;-51
2023/12/24 10:44:17;;;;;;;;;;;;;;;10.87;100.00;100393.25;5103904;28;19971;-51
2023/12/24 10:46:42;;;;;;;;;;;;;;;10.79;100.00;100386.13;5106563;28;19967;-50
2023/12/24 10:49:07;;;;;;;;;;;;;;;10.73;100.00;100392.31;5101263;28;19928;-50
2023/12/24 10:51:33;;;;;;;;;;;;;;;10.73;100.00;100381.53;5104467;28;19924;-53
2023/12/24 10:53:59;;;;;;;;;;;;;;;10.71;100.00;100380.91;5081462;28;19926;-51
2023/12/24 10:56:26;;;;;;;;;;;;;;;10.68;100.00;100365.13;5107340;28;20406;-46
2023/12/24 10:58:59;;;;;;;;;;;;;;;10.70;100.00;100388.16;5106454;28;19938;-45
2023/12/24 11:01:24;;;;;;;;;;;;;;;10.67;100.00;100367.00;5081933;28;19923;-46
2023/12/24 11:03:51;;;;;;;;;;;;;;;10.68;100.00;100363.28;5106543;28;20405;-45
2023/12/24 11:06:35;;;;;;;;;;;;;;;10.70;100.00;100349.63;5106511;28;19923;-45
2023/12/24 11:09:00;;;;;;;;;;;;;;;10.77;100.00;100359.44;5106452;28;19927;-45
2023/12/24 11:11:26;;;;;;;;;;;;;;;10.84;100.00;100366.72;5107644;28;19919;-44
2023/12/24 11:13:52;;;;;;;;;;;;;;;10.85;100.00;100373.75;5099693;28;20527;-45
2023/12/24 11:16:36;;;;;;;;;;;;;;;10.85;100.00;100368.38;5108055;28;19931;-44
2023/12/24 11:19:01;;;;;;;;;;;;;;;10.86;100.00;100364.66;5105538;28;19912;-45
2023/12/24 11:21:26;;;;;;;;;;;;;;;10.88;100.00;100373.38;5108532;28;19916;-45
2023/12/24 11:24:11;;;;;;;;;;;;;;;10.87;100.00;100404.00;5108951;28;19995;-43
2023/12/24 11:26:36;;;;;;;;;;;;;;;10.88;100.00;100355.38;5108855;28;20092;-43
2023/12/24 11:29:02;;;;;;;;;;;;;;;10.91;100.00;100341.50;5108444;28;19993;-44
2023/12/24 11:31:28;;;;;;;;;;;;;;;10.96;100.00;100359.78;5096384;28;20035;-44
2023/12/24 11:33:57;;;;;;;;;;;;;;;10.96;100.00;100357.09;5108764;28;20174;-44
2023/12/24 11:36:23;;;;;;;;;;;;;;;10.99;100.00;100348.59;5108637;28;19916;-44
2023/12/24 11:38:53;;;;;;;;;;;;;;;10.96;100.00;100343.63;5107213;28;19916;-44
2023/12/24 11:41:19;;;;;;;;;;;;;;;10.98;100.00;100346.97;5109334;28;20001;-44
2023/12/24 11:43:52;;;;;;;;;;;;;;;10.96;100.00;100338.25;5109365;28;19920;-44
2023/12/24 11:46:17;;;;;;;;;;;;;;;11.04;100.00;100348.03;5108992;28;19924;-44
2023/12/24 11:48:42;;;;;;;;;;;;;;;11.05;100.00;100337.03;5108136;28;19928;-44
2023/12/24 11:51:08;;;;;;;;;;;;;;;11.10;100.00;100323.81;5107714;28;20187;-43
2023/12/24 11:53:34;;;;;;;;;;;;;;;11.12;100.00;100320.94;5107990;28;19915;-45
2023/12/24 11:56:04;;;;;;;;;;;;;;;11.18;100.00;100299.41;5107152;28;19931;-43
2023/12/24 11:58:29;;;;;;;;;;;;;;;11.19;100.00;100306.47;5108022;28;20393;-44
2023/12/24 12:00:54;;;;;;;;;;;;;;;11.25;100.00;100290.56;5108357;28;20030;-45
2023/12/24 12:03:19;;;;;;;;;;;;;;;11.28;100.00;100287.44;5107904;28;20289;-44
2023/12/24 12:05:45;;;;;;;;;;;;;;;11.26;100.00;100301.09;5108537;28;20266;-44
2023/12/24 12:08:10;;;;;;;;;;;;;;;11.27;100.00;100291.16;5105016;28;20684;-44
2023/12/24 12:10:38;;;;;;;;;;;;;;;11.27;100.00;100291.16;5108490;28;20255;-44
2023/12/24 12:13:03;;;;;;;;;;;;;;;11.28;100.00;100271.28;5104579;28;20254;-45
2023/12/24 12:15:29;;;;;;;;;;;;;;;11.30;100.00;100280.84;5106769;28;19936;-44
2023/12/24 12:17:54;;;;;;;;;;;;;;;11.29;100.00;100300.69;5108219;28;20010;-45
2023/12/24 12:20:19;;;;;;;;;;;;;;;11.29;100.00;100273.75;5107829;28;19916;-45
2023/12/24 12:22:44;;;;;;;;;;;;;;;11.32;100.00;100261.75;5108231;28;19925;-44